sensor_id;sensor_type;location;lat;lon;timestamp;P1;durP1;ratioP1;P2;durP2;ratioP2
59770;SDS011;45649;53.014;6.600;2023-05-23T00:01:44;34.37;;;19.80;;
59770;SDS011;45649;53.014;6.600;2023-05-23T00:04:10;36.93;;;19.77;;
59770;SDS011;45649;53.014;6.600;2023-05-23T00:06:43;29.10;;;18.90;;
59770;SDS011;45649;53.014;6.600;2023-05-23T00:09:14;37.03;;;21.57;;
59770;SDS011;45649;53.014;6.600;2023-05-23T00:11:40;33.77;;;19.60;;
59770;SDS011;45649;53.014;6.600;2023-05-23T00:14:12;31.60;;;19.10;;
59770;SDS011;45649;53.014;6.600;2023-05-23T00:16:42;30.67;;;19.07;;
59770;SDS011;45649;53.014;6.600;2023-05-23T00:19:12;26.03;;;17.37;;
59770;SDS011;45649;53.014;6.600;2023-05-23T00:21:42;24.67;;;16.60;;
59770;SDS011;45649;53.014;6.600;2023-05-23T00:24:09;20.57;;;15.87;;
59770;SDS011;45649;53.014;6.600;2023-05-23T00:26:35;21.77;;;15.63;;
59770;SDS011;45649;53.014;6.600;2023-05-23T00:29:02;24.93;;;15.47;;
59770;SDS011;45649;53.014;6.600;2023-05-23T00:31:28;21.03;;;15.23;;
59770;SDS011;45649;53.014;6.600;2023-05-23T00:33:55;18.30;;;14.00;;
59770;SDS011;45649;53.014;6.600;2023-05-23T00:36:21;20.27;;;14.20;;
59770;SDS011;45649;53.014;6.600;2023-05-23T00:38:47;18.47;;;14.40;;
59770;SDS011;45649;53.014;6.600;2023-05-23T00:41:14;19.87;;;13.57;;
59770;SDS011;45649;53.014;6.600;2023-05-23T00:43:42;21.27;;;13.87;;
59770;SDS011;45649;53.014;6.600;2023-05-23T00:46:09;21.53;;;13.87;;
59770;SDS011;45649;53.014;6.600;2023-05-23T00:48:35;20.47;;;13.13;;
59770;SDS011;45649;53.014;6.600;2023-05-23T00:51:02;22.80;;;14.27;;
59770;SDS011;45649;53.014;6.600;2023-05-23T00:53:29;20.60;;;12.73;;
59770;SDS011;45649;53.014;6.600;2023-05-23T00:55:55;19.83;;;12.80;;
59770;SDS011;45649;53.014;6.600;2023-05-23T00:58:21;22.93;;;12.87;;
59770;SDS011;45649;53.014;6.600;2023-05-23T01:00:47;20.33;;;13.27;;
59770;SDS011;45649;53.014;6.600;2023-05-23T01:03:14;20.93;;;13.37;;
59770;SDS011;45649;53.014;6.600;2023-05-23T01:05:42;21.20;;;14.37;;
59770;SDS011;45649;53.014;6.600;2023-05-23T01:08:08;20.43;;;14.77;;
59770;SDS011;45649;53.014;6.600;2023-05-23T01:10:34;19.30;;;14.50;;
59770;SDS011;45649;53.014;6.600;2023-05-23T01:15:58;17.70;;;14.37;;
59770;SDS011;45649;53.014;6.600;2023-05-23T01:18:34;18.83;;;13.90;;
59770;SDS011;45649;53.014;6.600;2023-05-23T01:21:02;21.57;;;13.37;;
59770;SDS011;45649;53.014;6.600;2023-05-23T01:28:46;17.93;;;12.17;;
59770;SDS011;45649;53.014;6.600;2023-05-23T01:31:13;17.50;;;11.20;;
59770;SDS011;45649;53.014;6.600;2023-05-23T01:33:39;17.27;;;11.20;;
59770;SDS011;45649;53.014;6.600;2023-05-23T01:36:05;15.67;;;10.40;;
59770;SDS011;45649;53.014;6.600;2023-05-23T01:38:33;15.97;;;10.17;;
59770;SDS011;45649;53.014;6.600;2023-05-23T01:40:59;13.50;;;8.60;;
59770;SDS011;45649;53.014;6.600;2023-05-23T01:43:25;12.53;;;9.13;;
59770;SDS011;45649;53.014;6.600;2023-05-23T01:45:52;16.90;;;9.30;;
59770;SDS011;45649;53.014;6.600;2023-05-23T01:48:18;12.93;;;8.80;;
59770;SDS011;45649;53.014;6.600;2023-05-23T01:50:46;13.63;;;8.70;;
59770;SDS011;45649;53.014;6.600;2023-05-23T01:53:13;16.70;;;9.33;;
59770;SDS011;45649;53.014;6.600;2023-05-23T01:55:40;15.07;;;8.60;;
59770;SDS011;45649;53.014;6.600;2023-05-23T01:58:06;15.27;;;8.83;;
59770;SDS011;45649;53.014;6.600;2023-05-23T02:03:17;16.03;;;9.17;;
59770;SDS011;45649;53.014;6.600;2023-05-23T02:05:43;19.87;;;9.97;;
59770;SDS011;45649;53.014;6.600;2023-05-23T02:08:10;23.40;;;10.10;;
59770;SDS011;45649;53.014;6.600;2023-05-23T02:10:36;23.10;;;10.47;;
59770;SDS011;45649;53.014;6.600;2023-05-23T02:13:02;26.27;;;11.47;;
59770;SDS011;45649;53.014;6.600;2023-05-23T02:15:28;25.27;;;11.00;;
59770;SDS011;45649;53.014;6.600;2023-05-23T02:17:54;20.97;;;10.87;;
59770;SDS011;45649;53.014;6.600;2023-05-23T02:20:21;21.90;;;11.07;;
59770;SDS011;45649;53.014;6.600;2023-05-23T02:22:47;24.63;;;11.30;;
59770;SDS011;45649;53.014;6.600;2023-05-23T02:25:13;21.90;;;11.47;;
59770;SDS011;45649;53.014;6.600;2023-05-23T02:27:39;21.73;;;11.47;;
59770;SDS011;45649;53.014;6.600;2023-05-23T02:30:06;22.10;;;11.07;;
59770;SDS011;45649;53.014;6.600;2023-05-23T02:32:33;20.50;;;10.10;;
59770;SDS011;45649;53.014;6.600;2023-05-23T02:34:59;17.60;;;9.87;;
59770;SDS011;45649;53.014;6.600;2023-05-23T02:37:25;21.73;;;10.13;;
59770;SDS011;45649;53.014;6.600;2023-05-23T02:39:51;19.03;;;10.10;;
59770;SDS011;45649;53.014;6.600;2023-05-23T02:42:17;18.20;;;9.10;;
59770;SDS011;45649;53.014;6.600;2023-05-23T02:44:43;15.73;;;8.97;;
59770;SDS011;45649;53.014;6.600;2023-05-23T02:47:10;19.37;;;8.30;;
59770;SDS011;45649;53.014;6.600;2023-05-23T02:49:36;15.93;;;8.17;;
59770;SDS011;45649;53.014;6.600;2023-05-23T02:52:02;16.60;;;7.87;;
59770;SDS011;45649;53.014;6.600;2023-05-23T02:54:28;15.13;;;7.53;;
59770;SDS011;45649;53.014;6.600;2023-05-23T02:56:55;15.40;;;8.53;;
59770;SDS011;45649;53.014;6.600;2023-05-23T02:59:21;22.17;;;8.70;;
59770;SDS011;45649;53.014;6.600;2023-05-23T03:01:47;18.50;;;8.77;;
59770;SDS011;45649;53.014;6.600;2023-05-23T03:04:13;16.97;;;8.57;;
59770;SDS011;45649;53.014;6.600;2023-05-23T03:06:40;17.87;;;8.30;;
59770;SDS011;45649;53.014;6.600;2023-05-23T03:09:09;23.13;;;8.20;;
59770;SDS011;45649;53.014;6.600;2023-05-23T03:11:35;16.03;;;7.70;;
59770;SDS011;45649;53.014;6.600;2023-05-23T03:14:02;18.73;;;7.90;;
59770;SDS011;45649;53.014;6.600;2023-05-23T03:16:28;20.30;;;7.87;;
59770;SDS011;45649;53.014;6.600;2023-05-23T03:18:54;17.57;;;7.63;;
59770;SDS011;45649;53.014;6.600;2023-05-23T03:21:20;20.20;;;7.60;;
59770;SDS011;45649;53.014;6.600;2023-05-23T03:23:46;20.87;;;8.07;;
59770;SDS011;45649;53.014;6.600;2023-05-23T03:26:12;15.87;;;8.20;;
59770;SDS011;45649;53.014;6.600;2023-05-23T03:28:38;19.43;;;8.10;;
59770;SDS011;45649;53.014;6.600;2023-05-23T03:31:04;19.93;;;8.33;;
59770;SDS011;45649;53.014;6.600;2023-05-23T03:33:30;22.93;;;8.40;;
59770;SDS011;45649;53.014;6.600;2023-05-23T03:35:56;17.63;;;8.60;;
59770;SDS011;45649;53.014;6.600;2023-05-23T03:38:22;22.43;;;8.40;;
59770;SDS011;45649;53.014;6.600;2023-05-23T03:40:49;14.60;;;7.70;;
59770;SDS011;45649;53.014;6.600;2023-05-23T03:43:15;16.43;;;7.70;;
59770;SDS011;45649;53.014;6.600;2023-05-23T03:45:41;20.07;;;7.53;;
59770;SDS011;45649;53.014;6.600;2023-05-23T03:48:07;17.90;;;7.10;;
59770;SDS011;45649;53.014;6.600;2023-05-23T03:50:33;20.30;;;7.50;;
59770;SDS011;45649;53.014;6.600;2023-05-23T03:52:59;14.03;;;7.00;;
59770;SDS011;45649;53.014;6.600;2023-05-23T03:55:25;17.83;;;6.70;;
59770;SDS011;45649;53.014;6.600;2023-05-23T03:57:51;20.50;;;7.67;;
59770;SDS011;45649;53.014;6.600;2023-05-23T04:00:18;16.73;;;7.27;;
59770;SDS011;45649;53.014;6.600;2023-05-23T04:02:44;15.53;;;6.73;;
59770;SDS011;45649;53.014;6.600;2023-05-23T04:05:11;14.43;;;6.83;;
59770;SDS011;45649;53.014;6.600;2023-05-23T04:07:37;16.87;;;6.40;;
59770;SDS011;45649;53.014;6.600;2023-05-23T04:10:04;12.10;;;6.43;;
59770;SDS011;45649;53.014;6.600;2023-05-23T04:12:30;15.43;;;6.67;;
59770;SDS011;45649;53.014;6.600;2023-05-23T04:14:56;11.37;;;6.03;;
59770;SDS011;45649;53.014;6.600;2023-05-23T04:17:23;14.70;;;5.70;;
59770;SDS011;45649;53.014;6.600;2023-05-23T04:19:49;15.07;;;5.67;;
59770;SDS011;45649;53.014;6.600;2023-05-23T04:22:15;12.80;;;5.90;;
59770;SDS011;45649;53.014;6.600;2023-05-23T04:24:42;13.63;;;5.80;;
59770;SDS011;45649;53.014;6.600;2023-05-23T04:27:08;15.00;;;6.00;;
59770;SDS011;45649;53.014;6.600;2023-05-23T04:29:34;13.20;;;5.10;;
59770;SDS011;45649;53.014;6.600;2023-05-23T04:32:01;16.07;;;5.97;;
59770;SDS011;45649;53.014;6.600;2023-05-23T04:34:27;14.27;;;6.00;;
59770;SDS011;45649;53.014;6.600;2023-05-23T04:36:54;14.67;;;5.57;;
59770;SDS011;45649;53.014;6.600;2023-05-23T04:39:21;12.77;;;6.03;;
59770;SDS011;45649;53.014;6.600;2023-05-23T04:41:48;15.82;;;6.50;;
59770;SDS011;45649;53.014;6.600;2023-05-23T04:44:14;14.77;;;5.70;;
59770;SDS011;45649;53.014;6.600;2023-05-23T04:46:40;13.37;;;5.87;;
59770;SDS011;45649;53.014;6.600;2023-05-23T04:49:07;15.73;;;5.60;;
59770;SDS011;45649;53.014;6.600;2023-05-23T04:51:34;15.43;;;4.80;;
59770;SDS011;45649;53.014;6.600;2023-05-23T04:54:00;15.43;;;4.97;;
59770;SDS011;45649;53.014;6.600;2023-05-23T04:56:26;13.73;;;4.60;;
59770;SDS011;45649;53.014;6.600;2023-05-23T04:58:53;12.27;;;4.73;;
59770;SDS011;45649;53.014;6.600;2023-05-23T05:01:20;10.27;;;4.90;;
59770;SDS011;45649;53.014;6.600;2023-05-23T05:03:50;9.87;;;4.43;;
59770;SDS011;45649;53.014;6.600;2023-05-23T05:06:17;10.83;;;4.47;;
59770;SDS011;45649;53.014;6.600;2023-05-23T05:08:43;12.97;;;5.10;;
59770;SDS011;45649;53.014;6.600;2023-05-23T05:11:09;12.97;;;4.80;;
59770;SDS011;45649;53.014;6.600;2023-05-23T05:13:35;16.77;;;5.70;;
59770;SDS011;45649;53.014;6.600;2023-05-23T05:16:01;11.77;;;6.23;;
59770;SDS011;45649;53.014;6.600;2023-05-23T05:18:28;17.57;;;6.87;;
59770;SDS011;45649;53.014;6.600;2023-05-23T05:20:54;17.00;;;7.60;;
59770;SDS011;45649;53.014;6.600;2023-05-23T05:23:24;19.20;;;7.60;;
59770;SDS011;45649;53.014;6.600;2023-05-23T05:25:53;16.97;;;8.20;;
59770;SDS011;45649;53.014;6.600;2023-05-23T05:28:20;18.17;;;8.83;;
59770;SDS011;45649;53.014;6.600;2023-05-23T05:30:46;20.57;;;8.60;;
59770;SDS011;45649;53.014;6.600;2023-05-23T05:33:18;16.97;;;7.70;;
59770;SDS011;45649;53.014;6.600;2023-05-23T05:35:45;15.93;;;7.30;;
59770;SDS011;45649;53.014;6.600;2023-05-23T05:38:11;18.53;;;7.50;;
59770;SDS011;45649;53.014;6.600;2023-05-23T05:40:37;15.67;;;7.87;;
59770;SDS011;45649;53.014;6.600;2023-05-23T05:43:03;16.63;;;7.33;;
59770;SDS011;45649;53.014;6.600;2023-05-23T05:45:30;12.20;;;6.37;;
59770;SDS011;45649;53.014;6.600;2023-05-23T05:47:57;15.50;;;6.77;;
59770;SDS011;45649;53.014;6.600;2023-05-23T05:50:23;19.60;;;6.50;;
59770;SDS011;45649;53.014;6.600;2023-05-23T05:52:49;20.00;;;6.63;;
59770;SDS011;45649;53.014;6.600;2023-05-23T05:55:15;15.63;;;6.53;;
59770;SDS011;45649;53.014;6.600;2023-05-23T05:57:41;13.33;;;6.60;;
59770;SDS011;45649;53.014;6.600;2023-05-23T06:00:08;12.57;;;6.30;;
59770;SDS011;45649;53.014;6.600;2023-05-23T06:02:41;17.10;;;6.47;;
59770;SDS011;45649;53.014;6.600;2023-05-23T06:05:09;13.43;;;6.17;;
59770;SDS011;45649;53.014;6.600;2023-05-23T06:07:40;12.37;;;6.23;;
59770;SDS011;45649;53.014;6.600;2023-05-23T06:10:07;12.90;;;6.03;;
59770;SDS011;45649;53.014;6.600;2023-05-23T06:12:33;13.47;;;5.73;;
59770;SDS011;45649;53.014;6.600;2023-05-23T06:15:00;13.87;;;5.67;;
59770;SDS011;45649;53.014;6.600;2023-05-23T06:17:26;15.07;;;6.00;;
59770;SDS011;45649;53.014;6.600;2023-05-23T06:19:52;11.63;;;5.67;;
59770;SDS011;45649;53.014;6.600;2023-05-23T06:22:18;10.20;;;5.17;;
59770;SDS011;45649;53.014;6.600;2023-05-23T06:24:44;13.23;;;5.63;;
59770;SDS011;45649;53.014;6.600;2023-05-23T06:27:11;14.30;;;5.53;;
59770;SDS011;45649;53.014;6.600;2023-05-23T06:29:37;11.60;;;5.17;;
59770;SDS011;45649;53.014;6.600;2023-05-23T06:32:03;9.67;;;4.50;;
59770;SDS011;45649;53.014;6.600;2023-05-23T06:34:29;10.77;;;4.63;;
59770;SDS011;45649;53.014;6.600;2023-05-23T06:36:55;12.63;;;4.77;;
59770;SDS011;45649;53.014;6.600;2023-05-23T06:39:21;9.87;;;4.00;;
59770;SDS011;45649;53.014;6.600;2023-05-23T06:41:48;10.53;;;3.83;;
59770;SDS011;45649;53.014;6.600;2023-05-23T06:44:14;13.47;;;4.30;;
59770;SDS011;45649;53.014;6.600;2023-05-23T06:46:46;8.00;;;3.70;;
59770;SDS011;45649;53.014;6.600;2023-05-23T06:49:12;13.17;;;3.90;;
59770;SDS011;45649;53.014;6.600;2023-05-23T06:51:38;10.13;;;3.83;;
59770;SDS011;45649;53.014;6.600;2023-05-23T06:54:04;10.63;;;3.67;;
59770;SDS011;45649;53.014;6.600;2023-05-23T06:56:30;14.63;;;4.20;;
59770;SDS011;45649;53.014;6.600;2023-05-23T06:58:56;10.40;;;3.63;;
59770;SDS011;45649;53.014;6.600;2023-05-23T07:01:23;12.93;;;3.80;;
59770;SDS011;45649;53.014;6.600;2023-05-23T07:03:49;9.03;;;3.73;;
59770;SDS011;45649;53.014;6.600;2023-05-23T07:06:15;13.63;;;4.20;;
59770;SDS011;45649;53.014;6.600;2023-05-23T07:08:42;14.60;;;3.80;;
59770;SDS011;45649;53.014;6.600;2023-05-23T07:11:08;12.93;;;4.10;;
59770;SDS011;45649;53.014;6.600;2023-05-23T07:13:34;16.47;;;3.90;;
59770;SDS011;45649;53.014;6.600;2023-05-23T07:16:00;17.63;;;4.30;;
59770;SDS011;45649;53.014;6.600;2023-05-23T07:18:26;17.10;;;4.07;;
59770;SDS011;45649;53.014;6.600;2023-05-23T07:20:52;19.07;;;3.93;;
59770;SDS011;45649;53.014;6.600;2023-05-23T07:23:18;13.47;;;3.80;;
59770;SDS011;45649;53.014;6.600;2023-05-23T07:25:45;13.17;;;3.70;;
59770;SDS011;45649;53.014;6.600;2023-05-23T07:28:11;18.77;;;4.37;;
59770;SDS011;45649;53.014;6.600;2023-05-23T07:30:37;13.73;;;4.03;;
59770;SDS011;45649;53.014;6.600;2023-05-23T07:33:03;15.20;;;4.10;;
59770;SDS011;45649;53.014;6.600;2023-05-23T07:35:30;16.73;;;4.70;;
59770;SDS011;45649;53.014;6.600;2023-05-23T07:37:56;21.00;;;3.67;;
59770;SDS011;45649;53.014;6.600;2023-05-23T07:40:22;16.23;;;4.27;;
59770;SDS011;45649;53.014;6.600;2023-05-23T07:42:48;13.80;;;3.50;;
59770;SDS011;45649;53.014;6.600;2023-05-23T07:45:14;10.60;;;3.33;;
59770;SDS011;45649;53.014;6.600;2023-05-23T07:47:41;18.10;;;3.77;;
59770;SDS011;45649;53.014;6.600;2023-05-23T07:50:07;11.93;;;3.80;;
59770;SDS011;45649;53.014;6.600;2023-05-23T07:52:33;12.33;;;3.40;;
59770;SDS011;45649;53.014;6.600;2023-05-23T07:55:00;20.33;;;4.20;;
59770;SDS011;45649;53.014;6.600;2023-05-23T07:57:26;17.33;;;4.53;;
59770;SDS011;45649;53.014;6.600;2023-05-23T07:59:52;14.50;;;3.77;;
59770;SDS011;45649;53.014;6.600;2023-05-23T08:02:19;14.57;;;3.73;;
59770;SDS011;45649;53.014;6.600;2023-05-23T08:04:45;18.20;;;3.70;;
59770;SDS011;45649;53.014;6.600;2023-05-23T08:07:12;19.07;;;4.30;;
59770;SDS011;45649;53.014;6.600;2023-05-23T08:09:38;14.87;;;4.13;;
59770;SDS011;45649;53.014;6.600;2023-05-23T08:12:05;11.60;;;3.90;;
59770;SDS011;45649;53.014;6.600;2023-05-23T08:14:31;13.30;;;4.17;;
59770;SDS011;45649;53.014;6.600;2023-05-23T08:16:57;13.83;;;3.77;;
59770;SDS011;45649;53.014;6.600;2023-05-23T08:19:23;13.33;;;4.30;;
59770;SDS011;45649;53.014;6.600;2023-05-23T08:21:49;16.07;;;4.10;;
59770;SDS011;45649;53.014;6.600;2023-05-23T08:24:17;16.63;;;3.70;;
59770;SDS011;45649;53.014;6.600;2023-05-23T08:26:44;17.00;;;4.07;;
59770;SDS011;45649;53.014;6.600;2023-05-23T08:29:13;14.80;;;4.23;;
59770;SDS011;45649;53.014;6.600;2023-05-23T08:31:39;17.83;;;4.37;;
59770;SDS011;45649;53.014;6.600;2023-05-23T08:34:05;19.67;;;4.20;;
59770;SDS011;45649;53.014;6.600;2023-05-23T08:36:32;17.80;;;4.00;;
59770;SDS011;45649;53.014;6.600;2023-05-23T08:39:00;16.97;;;4.23;;
59770;SDS011;45649;53.014;6.600;2023-05-23T08:41:26;15.97;;;3.77;;
59770;SDS011;45649;53.014;6.600;2023-05-23T08:43:52;13.10;;;3.73;;
59770;SDS011;45649;53.014;6.600;2023-05-23T08:46:18;11.17;;;3.70;;
59770;SDS011;45649;53.014;6.600;2023-05-23T08:48:47;20.80;;;3.87;;
59770;SDS011;45649;53.014;6.600;2023-05-23T08:51:15;15.13;;;4.07;;
59770;SDS011;45649;53.014;6.600;2023-05-23T08:53:42;13.47;;;3.67;;
59770;SDS011;45649;53.014;6.600;2023-05-23T08:56:14;16.90;;;4.00;;
59770;SDS011;45649;53.014;6.600;2023-05-23T08:58:40;11.27;;;3.53;;
59770;SDS011;45649;53.014;6.600;2023-05-23T09:01:10;10.90;;;3.83;;
59770;SDS011;45649;53.014;6.600;2023-05-23T09:03:37;15.53;;;4.23;;
59770;SDS011;45649;53.014;6.600;2023-05-23T09:06:07;15.03;;;4.40;;
59770;SDS011;45649;53.014;6.600;2023-05-23T09:08:33;13.27;;;3.67;;
59770;SDS011;45649;53.014;6.600;2023-05-23T09:10:59;12.70;;;3.93;;
59770;SDS011;45649;53.014;6.600;2023-05-23T09:13:29;11.97;;;3.33;;
59770;SDS011;45649;53.014;6.600;2023-05-23T09:16:03;18.70;;;4.20;;
59770;SDS011;45649;53.014;6.600;2023-05-23T09:18:34;15.83;;;3.70;;
59770;SDS011;45649;53.014;6.600;2023-05-23T09:21:01;14.03;;;3.80;;
59770;SDS011;45649;53.014;6.600;2023-05-23T09:23:31;14.17;;;4.10;;
59770;SDS011;45649;53.014;6.600;2023-05-23T09:26:04;14.00;;;3.80;;
59770;SDS011;45649;53.014;6.600;2023-05-23T09:28:31;15.90;;;3.73;;
59770;SDS011;45649;53.014;6.600;2023-05-23T09:31:01;16.70;;;3.83;;
59770;SDS011;45649;53.014;6.600;2023-05-23T09:36:00;11.87;;;3.63;;
59770;SDS011;45649;53.014;6.600;2023-05-23T09:38:26;11.90;;;3.83;;
59770;SDS011;45649;53.014;6.600;2023-05-23T09:40:53;10.77;;;3.53;;
59770;SDS011;45649;53.014;6.600;2023-05-23T09:43:21;13.77;;;4.13;;
59770;SDS011;45649;53.014;6.600;2023-05-23T09:45:47;12.20;;;3.57;;
59770;SDS011;45649;53.014;6.600;2023-05-23T09:48:14;14.83;;;3.43;;
59770;SDS011;45649;53.014;6.600;2023-05-23T09:50:40;9.20;;;3.23;;
59770;SDS011;45649;53.014;6.600;2023-05-23T09:53:06;12.43;;;3.40;;
59770;SDS011;45649;53.014;6.600;2023-05-23T09:55:32;12.20;;;3.60;;
59770;SDS011;45649;53.014;6.600;2023-05-23T09:57:58;17.13;;;3.57;;
59770;SDS011;45649;53.014;6.600;2023-05-23T10:00:25;10.53;;;3.40;;
59770;SDS011;45649;53.014;6.600;2023-05-23T10:05:46;13.57;;;3.40;;
59770;SDS011;45649;53.014;6.600;2023-05-23T10:08:13;11.27;;;3.50;;
59770;SDS011;45649;53.014;6.600;2023-05-23T10:13:22;11.63;;;3.37;;
59770;SDS011;45649;53.014;6.600;2023-05-23T10:15:50;11.40;;;3.50;;
59770;SDS011;45649;53.014;6.600;2023-05-23T10:18:20;16.07;;;4.37;;
59770;SDS011;45649;53.014;6.600;2023-05-23T10:20:50;12.70;;;3.03;;
59770;SDS011;45649;53.014;6.600;2023-05-23T10:23:18;12.90;;;3.30;;
59770;SDS011;45649;53.014;6.600;2023-05-23T10:25:45;12.90;;;3.10;;
59770;SDS011;45649;53.014;6.600;2023-05-23T10:28:12;8.97;;;3.10;;
59770;SDS011;45649;53.014;6.600;2023-05-23T10:30:38;6.87;;;2.90;;
59770;SDS011;45649;53.014;6.600;2023-05-23T10:33:04;12.07;;;3.10;;
59770;SDS011;45649;53.014;6.600;2023-05-23T10:40:56;10.03;;;3.20;;
59770;SDS011;45649;53.014;6.600;2023-05-23T10:45:52;12.30;;;3.40;;
59770;SDS011;45649;53.014;6.600;2023-05-23T10:48:22;13.80;;;3.60;;
59770;SDS011;45649;53.014;6.600;2023-05-23T10:51:04;12.10;;;3.37;;
59770;SDS011;45649;53.014;6.600;2023-05-23T10:53:31;10.43;;;3.10;;
59770;SDS011;45649;53.014;6.600;2023-05-23T10:55:57;12.53;;;3.60;;
59770;SDS011;45649;53.014;6.600;2023-05-23T10:58:23;14.67;;;3.23;;
59770;SDS011;45649;53.014;6.600;2023-05-23T11:00:50;11.73;;;3.50;;
59770;SDS011;45649;53.014;6.600;2023-05-23T11:03:17;13.60;;;3.30;;
59770;SDS011;45649;53.014;6.600;2023-05-23T11:05:47;12.33;;;3.47;;
59770;SDS011;45649;53.014;6.600;2023-05-23T11:08:18;14.57;;;3.40;;
59770;SDS011;45649;53.014;6.600;2023-05-23T11:13:18;12.60;;;3.50;;
59770;SDS011;45649;53.014;6.600;2023-05-23T11:15:45;13.17;;;3.17;;
59770;SDS011;45649;53.014;6.600;2023-05-23T11:18:26;8.63;;;2.80;;
59770;SDS011;45649;53.014;6.600;2023-05-23T11:20:55;14.07;;;3.00;;
59770;SDS011;45649;53.014;6.600;2023-05-23T11:23:23;12.20;;;3.37;;
59770;SDS011;45649;53.014;6.600;2023-05-23T11:26:04;10.30;;;3.03;;
59770;SDS011;45649;53.014;6.600;2023-05-23T11:28:54;9.37;;;3.00;;
59770;SDS011;45649;53.014;6.600;2023-05-23T11:31:21;11.17;;;3.20;;
59770;SDS011;45649;53.014;6.600;2023-05-23T11:33:49;9.93;;;3.23;;
59770;SDS011;45649;53.014;6.600;2023-05-23T11:36:16;12.10;;;3.10;;
59770;SDS011;45649;53.014;6.600;2023-05-23T11:38:42;11.20;;;3.43;;
59770;SDS011;45649;53.014;6.600;2023-05-23T11:41:08;12.93;;;3.40;;
59770;SDS011;45649;53.014;6.600;2023-05-23T11:43:34;12.60;;;3.20;;
59770;SDS011;45649;53.014;6.600;2023-05-23T11:46:07;10.30;;;3.07;;
59770;SDS011;45649;53.014;6.600;2023-05-23T11:48:33;13.47;;;3.43;;
59770;SDS011;45649;53.014;6.600;2023-05-23T11:51:00;14.53;;;3.70;;
59770;SDS011;45649;53.014;6.600;2023-05-23T11:53:26;7.47;;;2.63;;
59770;SDS011;45649;53.014;6.600;2023-05-23T11:55:54;11.33;;;3.17;;
59770;SDS011;45649;53.014;6.600;2023-05-23T11:58:21;10.27;;;3.10;;
59770;SDS011;45649;53.014;6.600;2023-05-23T12:00:47;12.40;;;3.47;;
59770;SDS011;45649;53.014;6.600;2023-05-23T12:03:14;10.73;;;3.20;;
59770;SDS011;45649;53.014;6.600;2023-05-23T12:05:41;11.57;;;3.30;;
59770;SDS011;45649;53.014;6.600;2023-05-23T12:08:09;13.93;;;3.43;;
59770;SDS011;45649;53.014;6.600;2023-05-23T12:10:35;12.30;;;3.40;;
59770;SDS011;45649;53.014;6.600;2023-05-23T12:13:01;10.13;;;3.43;;
59770;SDS011;45649;53.014;6.600;2023-05-23T12:15:29;9.87;;;3.03;;
59770;SDS011;45649;53.014;6.600;2023-05-23T12:17:55;9.00;;;2.53;;
59770;SDS011;45649;53.014;6.600;2023-05-23T12:20:23;9.37;;;3.00;;
59770;SDS011;45649;53.014;6.600;2023-05-23T12:22:49;11.27;;;3.10;;
59770;SDS011;45649;53.014;6.600;2023-05-23T12:25:16;10.43;;;3.20;;
59770;SDS011;45649;53.014;6.600;2023-05-23T12:27:42;11.83;;;2.70;;
59770;SDS011;45649;53.014;6.600;2023-05-23T12:30:17;10.97;;;3.10;;
59770;SDS011;45649;53.014;6.600;2023-05-23T12:32:44;7.97;;;2.57;;
59770;SDS011;45649;53.014;6.600;2023-05-23T12:35:12;8.97;;;2.90;;
59770;SDS011;45649;53.014;6.600;2023-05-23T12:37:39;10.33;;;2.53;;
59770;SDS011;45649;53.014;6.600;2023-05-23T12:40:13;8.30;;;2.73;;
59770;SDS011;45649;53.014;6.600;2023-05-23T12:42:57;9.33;;;2.53;;
59770;SDS011;45649;53.014;6.600;2023-05-23T12:47:50;10.73;;;2.97;;
59770;SDS011;45649;53.014;6.600;2023-05-23T12:50:16;10.40;;;3.03;;
59770;SDS011;45649;53.014;6.600;2023-05-23T12:52:42;8.03;;;2.90;;
59770;SDS011;45649;53.014;6.600;2023-05-23T12:55:09;12.57;;;3.00;;
59770;SDS011;45649;53.014;6.600;2023-05-23T12:57:38;16.43;;;3.13;;
59770;SDS011;45649;53.014;6.600;2023-05-23T13:00:05;8.57;;;3.10;;
59770;SDS011;45649;53.014;6.600;2023-05-23T13:02:31;10.33;;;2.90;;
59770;SDS011;45649;53.014;6.600;2023-05-23T13:04:57;13.70;;;3.27;;
59770;SDS011;45649;53.014;6.600;2023-05-23T13:07:23;12.20;;;3.10;;
59770;SDS011;45649;53.014;6.600;2023-05-23T13:09:52;10.37;;;2.80;;
59770;SDS011;45649;53.014;6.600;2023-05-23T13:12:18;10.73;;;2.50;;
59770;SDS011;45649;53.014;6.600;2023-05-23T13:14:50;9.63;;;2.70;;
59770;SDS011;45649;53.014;6.600;2023-05-23T13:17:16;10.70;;;2.50;;
59770;SDS011;45649;53.014;6.600;2023-05-23T13:19:43;6.53;;;2.33;;
59770;SDS011;45649;53.014;6.600;2023-05-23T13:22:09;8.30;;;2.90;;
59770;SDS011;45649;53.014;6.600;2023-05-23T13:24:35;10.67;;;2.57;;
59770;SDS011;45649;53.014;6.600;2023-05-23T13:27:02;7.10;;;2.50;;
59770;SDS011;45649;53.014;6.600;2023-05-23T13:29:29;12.23;;;3.20;;
59770;SDS011;45649;53.014;6.600;2023-05-23T13:31:55;11.37;;;2.87;;
59770;SDS011;45649;53.014;6.600;2023-05-23T13:34:21;11.77;;;2.60;;
59770;SDS011;45649;53.014;6.600;2023-05-23T13:36:47;6.93;;;2.77;;
59770;SDS011;45649;53.014;6.600;2023-05-23T13:39:14;9.80;;;2.53;;
59770;SDS011;45649;53.014;6.600;2023-05-23T13:41:40;9.33;;;2.60;;
59770;SDS011;45649;53.014;6.600;2023-05-23T13:44:06;6.43;;;2.50;;
59770;SDS011;45649;53.014;6.600;2023-05-23T13:46:32;7.40;;;2.40;;
59770;SDS011;45649;53.014;6.600;2023-05-23T13:48:58;10.67;;;2.80;;
59770;SDS011;45649;53.014;6.600;2023-05-23T13:51:25;6.60;;;2.20;;
59770;SDS011;45649;53.014;6.600;2023-05-23T13:53:51;4.33;;;2.10;;
59770;SDS011;45649;53.014;6.600;2023-05-23T13:56:18;5.70;;;2.03;;
59770;SDS011;45649;53.014;6.600;2023-05-23T13:58:44;9.67;;;2.30;;
59770;SDS011;45649;53.014;6.600;2023-05-23T14:01:11;7.83;;;2.70;;
59770;SDS011;45649;53.014;6.600;2023-05-23T14:03:37;12.23;;;2.70;;
59770;SDS011;45649;53.014;6.600;2023-05-23T14:06:03;9.10;;;2.70;;
59770;SDS011;45649;53.014;6.600;2023-05-23T14:08:29;9.03;;;2.80;;
59770;SDS011;45649;53.014;6.600;2023-05-23T14:10:56;9.67;;;2.80;;
59770;SDS011;45649;53.014;6.600;2023-05-23T14:13:22;8.87;;;2.20;;
59770;SDS011;45649;53.014;6.600;2023-05-23T14:15:49;10.73;;;2.50;;
59770;SDS011;45649;53.014;6.600;2023-05-23T14:18:15;11.57;;;3.07;;
59770;SDS011;45649;53.014;6.600;2023-05-23T14:20:41;8.00;;;2.40;;
59770;SDS011;45649;53.014;6.600;2023-05-23T14:23:08;7.77;;;2.37;;
59770;SDS011;45649;53.014;6.600;2023-05-23T14:25:36;7.27;;;2.53;;
59770;SDS011;45649;53.014;6.600;2023-05-23T14:28:02;8.50;;;2.30;;
59770;SDS011;45649;53.014;6.600;2023-05-23T14:30:28;10.70;;;2.60;;
59770;SDS011;45649;53.014;6.600;2023-05-23T14:32:54;6.73;;;2.47;;
59770;SDS011;45649;53.014;6.600;2023-05-23T14:35:21;13.97;;;2.97;;
59770;SDS011;45649;53.014;6.600;2023-05-23T14:37:47;11.10;;;3.03;;
59770;SDS011;45649;53.014;6.600;2023-05-23T14:40:13;9.63;;;2.77;;
59770;SDS011;45649;53.014;6.600;2023-05-23T14:42:40;12.02;;;3.00;;
59770;SDS011;45649;53.014;6.600;2023-05-23T14:45:06;11.80;;;2.63;;
59770;SDS011;45649;53.014;6.600;2023-05-23T14:47:33;9.23;;;2.47;;
59770;SDS011;45649;53.014;6.600;2023-05-23T14:49:59;7.13;;;2.43;;
59770;SDS011;45649;53.014;6.600;2023-05-23T14:52:25;8.97;;;2.40;;
59770;SDS011;45649;53.014;6.600;2023-05-23T14:54:51;13.53;;;3.00;;
59770;SDS011;45649;53.014;6.600;2023-05-23T14:57:18;8.03;;;2.47;;
59770;SDS011;45649;53.014;6.600;2023-05-23T14:59:44;11.20;;;2.50;;
59770;SDS011;45649;53.014;6.600;2023-05-23T15:02:11;6.83;;;1.93;;
59770;SDS011;45649;53.014;6.600;2023-05-23T15:04:37;11.47;;;2.40;;